Thursday, July 28, 2016, 6:12 PM EDT

KNHK, Nas Patuxent River Md

Location: Patuxent River, MD, United States Lat: 38.3
Local Time: 6:12 PM EDT (22:12 GMT) Lon: -76.4
Time Zone: US/Eastern Elev: 39 ft

Show me the last for .
Show Decoded

2016-07-28 17:15 METAR KNHK 282115Z 10012G16KT 10SM TS FEW030 SCT045CB SCT080 BKN250 31/26 A2978
                 RMK AO2 TSB09 OCNL LTGIC SW TS SW MOV NE T1 SET T03110256 $ =
2016-07-28 16:52 METAR KNHK 282052Z 14011KT 10SM SCT045 SCT060 BKN080 33/26 A2979 RMK AO2 SLP089
                 SVR T2 SET T03280261 58016 $ =
2016-07-28 15:52 METAR KNHK 281952Z 14010KT 10SM SCT035 SCT150 BKN250 33/26 A2980 RMK AO2 SLP091
                 CB DSNT N AND E SVR T2 SET T03280256 $ =
2016-07-28 14:52 METAR KNHK 281852Z 12010KT 10SM FEW035 SCT150 BKN250 33/25 A2983 RMK AO2 SLP103
                 T03280250 $ =
2016-07-28 11:52 METAR KNHK 281552Z 14007KT 10SM FEW030 BKN140 BKN250 30/24 A2989 RMK AO2 SLP122
                 T03000239 $ =
2016-07-28 10:52 METAR KNHK 281452Z 12008KT 10SM FEW030 BKN150 BKN250 30/23 A2989 RMK AO2 SLP120
                 T03000233 58009 $ =
2016-07-28 09:52 METAR KNHK 281352Z 11006KT 10SM FEW025 BKN150 BKN250 31/24 A2989 RMK AO2 SLP122
                 T03060239 $ =
2016-07-28 08:52 METAR KNHK 281252Z 25004KT 10SM FEW150 SCT250 29/24 A2991 RMK AO2 SLP128
                 T02890239 $ =
2016-07-28 07:52 METAR KNHK 281152Z 23006KT 9SM FEW150 SCT250 28/25 A2991 RMK AO2 SLP129
                 T02780250 10278 20244 53008 $ =
2016-07-28 06:52 METAR KNHK 281052Z 24004KT 7SM FEW100 FEW150 SCT250 26/24 A2990 RMK AO2 SLP124
                 T02560239 $ =
2016-07-28 05:52 METAR KNHK 280952Z 23005KT 8SM SCT070 BKN250 25/24 A2989 RMK AO2 SLP121
                 T02500239 =
2016-07-28 04:52 METAR KNHK 280852Z AUTO 22005KT 9SM CLR 25/23 A2989 RMK AO2 SLP121 T02500233
                 58005 PWINO =
2016-07-28 03:52 METAR KNHK 280752Z AUTO 23003KT 10SM CLR 25/23 A2990 RMK AO2 SLP125 T02500228
                 PWINO =
2016-07-28 02:52 METAR KNHK 280652Z AUTO 22003KT 10SM CLR 25/23 A2990 RMK AO2 SLP125 T02500228
                 PWINO =
2016-07-28 01:52 METAR KNHK 280552Z AUTO 24003KT 10SM CLR 26/23 A2990 RMK AO2 SLP126 T02560228
                 10294 20256 58001 PWINO =
2016-07-28 00:52 METAR KNHK 280452Z AUTO 23006KT 10SM CLR 27/22 A2991 RMK AO2 SLP128 T02670222
                 403500261 PWINO =
2016-07-27 23:52 METAR KNHK 280352Z AUTO 21004KT 10SM CLR 27/23 A2990 RMK AO2 SLP127 T02670228
                 PWINO
2016-07-27 22:52 METAR KNHK 280252Z 22006KT 10SM BKN120 27/23 A2991 RMK AO2 SLP127 T02720233
                 53002 =
2016-07-27 21:52 METAR KNHK 280152Z 20005KT 10SM OVC150 28/23 A2990 RMK AO2 SLP126 T02780233 =
2016-07-27 20:52 METAR KNHK 280052Z 22005KT 10SM FEW120 BKN250 28/23 A2989 RMK AO2 SLP123
                 T02780233 =
2016-07-27 19:52 METAR KNHK 272352Z 20005KT 10SM FEW120 FEW150 BKN250 29/22 A2990 RMK AO2 SLP125
                 60000 T02940217 10350 20289 56000 =
2016-07-27 18:52 METAR KNHK 272252Z 00000KT 10SM FEW050 FEW150 BKN250 31/21 A2991 RMK AO2 SLP127
                 T2 SET T03110206 =

Support USWX by starting your Amazon purchase here.